sensor_id;sensor_type;location;lat;lon;timestamp;pressure;altitude;pressure_sealevel;temperature;humidity
17505;BME280;8870;50.950;11.762;2023-02-18T00:04:43;98866.97;;;8.46;100.00
17505;BME280;8870;50.950;11.762;2023-02-18T00:10:15;98882.38;;;8.44;100.00
17505;BME280;8870;50.950;11.762;2023-02-18T00:15:43;98888.03;;;8.41;100.00
17505;BME280;8870;50.950;11.762;2023-02-18T00:21:15;98888.03;;;8.41;100.00
17505;BME280;8870;50.950;11.762;2023-02-18T00:26:34;98890.00;;;8.39;100.00
17505;BME280;8870;50.950;11.762;2023-02-18T00:32:08;98899.75;;;8.40;100.00
17505;BME280;8870;50.950;11.762;2023-02-18T00:37:26;98908.91;;;8.37;100.00
17505;BME280;8870;50.950;11.762;2023-02-18T00:42:57;98904.69;;;8.35;100.00
17505;BME280;8870;50.950;11.762;2023-02-18T00:48:18;98910.03;;;8.35;100.00
17505;BME280;8870;50.950;11.762;2023-02-18T00:53:50;98927.38;;;8.30;100.00
17505;BME280;8870;50.950;11.762;2023-02-18T00:59:08;98922.16;;;8.29;100.00
17505;BME280;8870;50.950;11.762;2023-02-18T01:04:44;98923.28;;;8.26;100.00
17505;BME280;8870;50.950;11.762;2023-02-18T01:10:03;98906.72;;;8.21;100.00
17505;BME280;8870;50.950;11.762;2023-02-18T01:15:34;98924.09;;;8.17;100.00
17505;BME280;8870;50.950;11.762;2023-02-18T01:20:55;98903.97;;;8.01;100.00
17505;BME280;8870;50.950;11.762;2023-02-18T01:26:29;98871.44;;;7.95;100.00
17505;BME280;8870;50.950;11.762;2023-02-18T01:31:49;98876.03;;;7.83;100.00
17505;BME280;8870;50.950;11.762;2023-02-18T01:37:24;98861.28;;;7.67;100.00
17505;BME280;8870;50.950;11.762;2023-02-18T01:42:43;98851.03;;;7.51;100.00
17505;BME280;8870;50.950;11.762;2023-02-18T01:48:17;98845.84;;;7.38;100.00
17505;BME280;8870;50.950;11.762;2023-02-18T01:53:44;98859.78;;;7.32;100.00
17505;BME280;8870;50.950;11.762;2023-02-18T01:59:19;98864.22;;;7.22;100.00
17505;BME280;8870;50.950;11.762;2023-02-18T02:04:39;98861.06;;;7.17;100.00
17505;BME280;8870;50.950;11.762;2023-02-18T02:10:15;98878.88;;;7.06;100.00
17505;BME280;8870;50.950;11.762;2023-02-18T02:15:37;98899.59;;;7.04;100.00
17505;BME280;8870;50.950;11.762;2023-02-18T02:27:14;98900.09;;;6.98;100.00
17505;BME280;8870;50.950;11.762;2023-02-18T02:33:19;98905.56;;;6.97;100.00
17505;BME280;8870;50.950;11.762;2023-02-18T02:38:52;98917.00;;;6.99;100.00
17505;BME280;8870;50.950;11.762;2023-02-18T02:44:33;98913.84;;;7.05;100.00
17505;BME280;8870;50.950;11.762;2023-02-18T02:50:00;98919.78;;;7.08;100.00
17505;BME280;8870;50.950;11.762;2023-02-18T02:55:36;98903.44;;;7.12;100.00
17505;BME280;8870;50.950;11.762;2023-02-18T03:01:07;98901.84;;;7.20;100.00
17505;BME280;8870;50.950;11.762;2023-02-18T03:07:01;98909.25;;;7.28;100.00
17505;BME280;8870;50.950;11.762;2023-02-18T03:12:32;98917.22;;;7.39;100.00
17505;BME280;8870;50.950;11.762;2023-02-18T03:18:09;98888.81;;;7.48;100.00
17505;BME280;8870;50.950;11.762;2023-02-18T03:23:36;98892.22;;;7.50;100.00
17505;BME280;8870;50.950;11.762;2023-02-18T03:29:14;98878.41;;;7.55;100.00
17505;BME280;8870;50.950;11.762;2023-02-18T03:34:36;98877.53;;;7.54;100.00
17505;BME280;8870;50.950;11.762;2023-02-18T03:40:09;98860.38;;;7.57;100.00
17505;BME280;8870;50.950;11.762;2023-02-18T03:45:31;98851.59;;;7.55;100.00
17505;BME280;8870;50.950;11.762;2023-02-18T03:51:03;98865.25;;;7.52;100.00
17505;BME280;8870;50.950;11.762;2023-02-18T03:56:21;98875.16;;;7.51;100.00
17505;BME280;8870;50.950;11.762;2023-02-18T04:01:55;98866.25;;;7.51;100.00
17505;BME280;8870;50.950;11.762;2023-02-18T04:07:23;98882.56;;;7.48;100.00
17505;BME280;8870;50.950;11.762;2023-02-18T04:12:54;98887.25;;;7.46;100.00
17505;BME280;8870;50.950;11.762;2023-02-18T04:18:15;98883.69;;;7.45;100.00
17505;BME280;8870;50.950;11.762;2023-02-18T04:23:46;98881.16;;;7.44;100.00
17505;BME280;8870;50.950;11.762;2023-02-18T04:29:05;98892.13;;;7.40;100.00
17505;BME280;8870;50.950;11.762;2023-02-18T04:34:38;98897.50;;;7.40;100.00
17505;BME280;8870;50.950;11.762;2023-02-18T04:39:57;98883.25;;;7.40;100.00
17505;BME280;8870;50.950;11.762;2023-02-18T04:45:28;98872.63;;;7.38;100.00
17505;BME280;8870;50.950;11.762;2023-02-18T04:50:49;98885.31;;;7.36;100.00
17505;BME280;8870;50.950;11.762;2023-02-18T04:56:21;98875.56;;;7.35;100.00
17505;BME280;8870;50.950;11.762;2023-02-18T05:01:39;98872.88;;;7.35;100.00
17505;BME280;8870;50.950;11.762;2023-02-18T05:07:12;98863.88;;;7.36;100.00
17505;BME280;8870;50.950;11.762;2023-02-18T05:12:43;98841.44;;;7.37;100.00
17505;BME280;8870;50.950;11.762;2023-02-18T05:18:02;98844.13;;;7.37;100.00
17505;BME280;8870;50.950;11.762;2023-02-18T05:23:35;98832.44;;;7.38;100.00
17505;BME280;8870;50.950;11.762;2023-02-18T05:28:53;98835.97;;;7.39;100.00
17505;BME280;8870;50.950;11.762;2023-02-18T05:34:25;98818.06;;;7.39;100.00
17505;BME280;8870;50.950;11.762;2023-02-18T05:39:45;98800.00;;;7.42;100.00
17505;BME280;8870;50.950;11.762;2023-02-18T05:45:17;98801.38;;;7.36;100.00
17505;BME280;8870;50.950;11.762;2023-02-18T05:50:35;98795.03;;;7.37;100.00
17505;BME280;8870;50.950;11.762;2023-02-18T05:56:08;98778.72;;;7.40;100.00
17505;BME280;8870;50.950;11.762;2023-02-18T06:01:27;98760.19;;;7.58;100.00
17505;BME280;8870;50.950;11.762;2023-02-18T06:06:57;98743.69;;;7.72;100.00
17505;BME280;8870;50.950;11.762;2023-02-18T06:12:18;98708.47;;;7.87;100.00
17505;BME280;8870;50.950;11.762;2023-02-18T06:17:49;98664.44;;;7.99;100.00
17505;BME280;8870;50.950;11.762;2023-02-18T06:23:08;98636.91;;;8.07;100.00
17505;BME280;8870;50.950;11.762;2023-02-18T06:28:41;98605.56;;;8.17;100.00
17505;BME280;8870;50.950;11.762;2023-02-18T06:34:00;98570.94;;;8.24;100.00
17505;BME280;8870;50.950;11.762;2023-02-18T06:39:30;98550.59;;;8.31;100.00
17505;BME280;8870;50.950;11.762;2023-02-18T06:44:51;98527.56;;;8.39;100.00
17505;BME280;8870;50.950;11.762;2023-02-18T06:50:23;98516.94;;;8.47;100.00
17505;BME280;8870;50.950;11.762;2023-02-18T06:55:41;98525.28;;;8.54;100.00
17505;BME280;8870;50.950;11.762;2023-02-18T07:01:15;98526.66;;;8.68;100.00
17505;BME280;8870;50.950;11.762;2023-02-18T07:06:46;98514.34;;;8.75;100.00
17505;BME280;8870;50.950;11.762;2023-02-18T07:12:17;98489.28;;;8.84;100.00
17505;BME280;8870;50.950;11.762;2023-02-18T07:17:38;98490.97;;;8.85;100.00
17505;BME280;8870;50.950;11.762;2023-02-18T07:23:09;98475.47;;;8.97;100.00
17505;BME280;8870;50.950;11.762;2023-02-18T07:28:28;98482.38;;;9.00;100.00
17505;BME280;8870;50.950;11.762;2023-02-18T07:34:01;98445.00;;;9.06;100.00
17505;BME280;8870;50.950;11.762;2023-02-18T07:39:20;98438.19;;;9.12;100.00
17505;BME280;8870;50.950;11.762;2023-02-18T07:44:50;98433.28;;;9.25;100.00
17505;BME280;8870;50.950;11.762;2023-02-18T07:50:11;98433.81;;;9.29;100.00
17505;BME280;8870;50.950;11.762;2023-02-18T07:55:43;98427.84;;;9.35;100.00
17505;BME280;8870;50.950;11.762;2023-02-18T08:01:08;98424.69;;;9.40;100.00
17505;BME280;8870;50.950;11.762;2023-02-18T08:06:45;98419.38;;;9.48;100.00
17505;BME280;8870;50.950;11.762;2023-02-18T08:12:17;98428.53;;;9.55;100.00
17505;BME280;8870;50.950;11.762;2023-02-18T08:17:35;98410.59;;;9.64;100.00
17505;BME280;8870;50.950;11.762;2023-02-18T08:23:09;98412.53;;;9.72;100.00
17505;BME280;8870;50.950;11.762;2023-02-18T08:28:28;98407.47;;;9.69;100.00
17505;BME280;8870;50.950;11.762;2023-02-18T08:33:59;98405.63;;;9.69;100.00
17505;BME280;8870;50.950;11.762;2023-02-18T08:39:20;98389.31;;;9.71;100.00
17505;BME280;8870;50.950;11.762;2023-02-18T08:44:53;98398.59;;;9.77;100.00
17505;BME280;8870;50.950;11.762;2023-02-18T08:50:12;98401.66;;;9.82;100.00
17505;BME280;8870;50.950;11.762;2023-02-18T08:55:49;98394.81;;;9.87;100.00
17505;BME280;8870;50.950;11.762;2023-02-18T09:01:10;98382.28;;;9.96;100.00
17505;BME280;8870;50.950;11.762;2023-02-18T09:06:42;98339.75;;;10.08;100.00
17505;BME280;8870;50.950;11.762;2023-02-18T09:12:16;98324.34;;;10.18;100.00
17505;BME280;8870;50.950;11.762;2023-02-18T09:17:35;98327.44;;;10.32;100.00
17505;BME280;8870;50.950;11.762;2023-02-18T09:23:07;98327.78;;;10.37;100.00
17505;BME280;8870;50.950;11.762;2023-02-18T09:28:27;98325.16;;;10.45;100.00
17505;BME280;8870;50.950;11.762;2023-02-18T09:34:01;98328.88;;;10.53;100.00
17505;BME280;8870;50.950;11.762;2023-02-18T09:39:20;98320.97;;;10.59;100.00
17505;BME280;8870;50.950;11.762;2023-02-18T09:44:57;98325.53;;;10.59;100.00
17505;BME280;8870;50.950;11.762;2023-02-18T09:50:19;98308.06;;;10.71;100.00
17505;BME280;8870;50.950;11.762;2023-02-18T09:55:53;98318.53;;;10.74;100.00
17505;BME280;8870;50.950;11.762;2023-02-18T10:01:20;98289.56;;;10.85;100.00
17505;BME280;8870;50.950;11.762;2023-02-18T10:06:54;98281.31;;;10.94;100.00
17505;BME280;8870;50.950;11.762;2023-02-18T10:12:15;98285.53;;;11.05;100.00
17505;BME280;8870;50.950;11.762;2023-02-18T10:17:51;98273.06;;;11.04;100.00
17505;BME280;8870;50.950;11.762;2023-02-18T10:23:12;98282.81;;;11.14;100.00
17505;BME280;8870;50.950;11.762;2023-02-18T10:28:45;98290.59;;;11.17;100.00
17505;BME280;8870;50.950;11.762;2023-02-18T10:34:13;98286.19;;;11.24;100.00
17505;BME280;8870;50.950;11.762;2023-02-18T10:40:03;98250.63;;;11.20;100.00
17505;BME280;8870;50.950;11.762;2023-02-18T10:45:35;98267.00;;;11.19;100.00
17505;BME280;8870;50.950;11.762;2023-02-18T10:51:15;98232.59;;;11.13;100.00
17505;BME280;8870;50.950;11.762;2023-02-18T10:56:39;98250.16;;;11.08;100.00
17505;BME280;8870;50.950;11.762;2023-02-18T11:02:16;98284.16;;;11.01;100.00
17505;BME280;8870;50.950;11.762;2023-02-18T11:07:47;98243.75;;;10.93;100.00
17505;BME280;8870;50.950;11.762;2023-02-18T11:13:24;98242.88;;;10.84;100.00
17505;BME280;8870;50.950;11.762;2023-02-18T11:18:44;98260.25;;;10.73;100.00
17505;BME280;8870;50.950;11.762;2023-02-18T11:24:19;98254.50;;;10.60;100.00
17505;BME280;8870;50.950;11.762;2023-02-18T11:29:37;98231.44;;;10.57;100.00
17505;BME280;8870;50.950;11.762;2023-02-18T11:35:16;98222.16;;;10.52;100.00
17505;BME280;8870;50.950;11.762;2023-02-18T11:40:39;98215.41;;;10.56;100.00
17505;BME280;8870;50.950;11.762;2023-02-18T11:46:12;98200.44;;;10.61;100.00
17505;BME280;8870;50.950;11.762;2023-02-18T11:51:33;98188.31;;;10.66;100.00
17505;BME280;8870;50.950;11.762;2023-02-18T11:57:11;98185.78;;;10.81;100.00
17505;BME280;8870;50.950;11.762;2023-02-18T12:02:33;98147.22;;;10.97;100.00
17505;BME280;8870;50.950;11.762;2023-02-18T12:08:11;98193.22;;;10.87;100.00
17505;BME280;8870;50.950;11.762;2023-02-18T12:13:36;98171.31;;;10.73;100.00
17505;BME280;8870;50.950;11.762;2023-02-18T12:19:20;98160.53;;;10.65;100.00
17505;BME280;8870;50.950;11.762;2023-02-18T12:24:55;98178.22;;;10.68;100.00
17505;BME280;8870;50.950;11.762;2023-02-18T12:30:54;98170.31;;;10.58;100.00
17505;BME280;8870;50.950;11.762;2023-02-18T12:36:22;98175.69;;;10.50;100.00
17505;BME280;8870;50.950;11.762;2023-02-18T12:42:12;98167.25;;;10.44;100.00
17505;BME280;8870;50.950;11.762;2023-02-18T12:47:59;98148.41;;;10.44;100.00
17505;BME280;8870;50.950;11.762;2023-02-18T12:53:51;98175.34;;;10.44;100.00
17505;BME280;8870;50.950;11.762;2023-02-18T12:59:26;98180.03;;;10.42;100.00
17505;BME280;8870;50.950;11.762;2023-02-18T13:05:06;98212.84;;;10.38;100.00
17505;BME280;8870;50.950;11.762;2023-02-18T13:10:47;98181.41;;;10.38;100.00
17505;BME280;8870;50.950;11.762;2023-02-18T13:16:22;98184.03;;;10.30;100.00
17505;BME280;8870;50.950;11.762;2023-02-18T13:21:44;98254.03;;;10.22;100.00
17505;BME280;8870;50.950;11.762;2023-02-18T13:27:23;98206.06;;;10.17;100.00
17505;BME280;8870;50.950;11.762;2023-02-18T13:32:52;98207.22;;;10.14;100.00
17505;BME280;8870;50.950;11.762;2023-02-18T13:44:42;98201.34;;;10.11;100.00
17505;BME280;8870;50.950;11.762;2023-02-18T13:50:40;98224.38;;;10.05;100.00
17505;BME280;8870;50.950;11.762;2023-02-18T13:56:04;98242.53;;;10.03;100.00
17505;BME280;8870;50.950;11.762;2023-02-18T14:01:44;98208.84;;;9.99;100.00
17505;BME280;8870;50.950;11.762;2023-02-18T14:07:45;98209.16;;;9.96;100.00
17505;BME280;8870;50.950;11.762;2023-02-18T14:13:24;98201.47;;;10.01;100.00
17505;BME280;8870;50.950;11.762;2023-02-18T14:18:58;98208.16;;;9.97;100.00
17505;BME280;8870;50.950;11.762;2023-02-18T14:24:46;98209.84;;;9.90;100.00
17505;BME280;8870;50.950;11.762;2023-02-18T14:30:16;98207.47;;;9.86;100.00
17505;BME280;8870;50.950;11.762;2023-02-18T14:35:55;98196.34;;;9.81;100.00
17505;BME280;8870;50.950;11.762;2023-02-18T14:41:24;98210.81;;;9.80;100.00
17505;BME280;8870;50.950;11.762;2023-02-18T14:47:09;98192.63;;;9.82;100.00
17505;BME280;8870;50.950;11.762;2023-02-18T14:52:40;98231.47;;;9.80;100.00
17505;BME280;8870;50.950;11.762;2023-02-18T14:58:24;98274.38;;;9.81;100.00
17505;BME280;8870;50.950;11.762;2023-02-18T15:03:45;98216.19;;;9.80;100.00
17505;BME280;8870;50.950;11.762;2023-02-18T15:09:21;98207.78;;;9.83;100.00
17505;BME280;8870;50.950;11.762;2023-02-18T15:14:41;98214.03;;;9.84;100.00
17505;BME280;8870;50.950;11.762;2023-02-18T15:20:13;98216.22;;;9.89;100.00
17505;BME280;8870;50.950;11.762;2023-02-18T15:25:34;98236.53;;;9.83;100.00
17505;BME280;8870;50.950;11.762;2023-02-18T15:31:09;98243.25;;;9.79;100.00
17505;BME280;8870;50.950;11.762;2023-02-18T15:36:28;98240.41;;;9.80;100.00
17505;BME280;8870;50.950;11.762;2023-02-18T15:42:06;98246.94;;;9.78;100.00
17505;BME280;8870;50.950;11.762;2023-02-18T15:47:25;98251.31;;;9.79;100.00
17505;BME280;8870;50.950;11.762;2023-02-18T15:52:58;98249.78;;;9.76;100.00
17505;BME280;8870;50.950;11.762;2023-02-18T15:58:22;98252.47;;;9.76;100.00
17505;BME280;8870;50.950;11.762;2023-02-18T16:03:55;98285.09;;;9.73;100.00
17505;BME280;8870;50.950;11.762;2023-02-18T16:09:24;98278.00;;;9.72;100.00
17505;BME280;8870;50.950;11.762;2023-02-18T16:14:59;98297.53;;;9.74;100.00
17505;BME280;8870;50.950;11.762;2023-02-18T16:20:25;98301.91;;;9.75;100.00
17505;BME280;8870;50.950;11.762;2023-02-18T16:26:16;98291.47;;;9.72;100.00
17505;BME280;8870;50.950;11.762;2023-02-18T16:31:40;98300.88;;;9.68;100.00
17505;BME280;8870;50.950;11.762;2023-02-18T16:37:11;98311.56;;;9.60;100.00
17505;BME280;8870;50.950;11.762;2023-02-18T16:42:42;98312.03;;;9.55;100.00
17505;BME280;8870;50.950;11.762;2023-02-18T16:48:18;98300.41;;;9.46;100.00
17505;BME280;8870;50.950;11.762;2023-02-18T16:53:37;98311.81;;;9.48;100.00
17505;BME280;8870;50.950;11.762;2023-02-18T16:59:08;98319.75;;;9.50;100.00
17505;BME280;8870;50.950;11.762;2023-02-18T17:04:29;98331.75;;;9.37;100.00
17505;BME280;8870;50.950;11.762;2023-02-18T17:10:00;98337.97;;;9.20;100.00
17505;BME280;8870;50.950;11.762;2023-02-18T17:15:27;98341.44;;;9.12;100.00
17505;BME280;8870;50.950;11.762;2023-02-18T17:21:04;98361.47;;;9.00;100.00
17505;BME280;8870;50.950;11.762;2023-02-18T17:26:24;98370.84;;;8.96;100.00
17505;BME280;8870;50.950;11.762;2023-02-18T17:31:56;98381.19;;;8.90;100.00
17505;BME280;8870;50.950;11.762;2023-02-18T17:37:18;98403.31;;;8.84;100.00
17505;BME280;8870;50.950;11.762;2023-02-18T17:42:49;98406.91;;;8.75;100.00
17505;BME280;8870;50.950;11.762;2023-02-18T17:48:08;98429.97;;;8.68;100.00
17505;BME280;8870;50.950;11.762;2023-02-18T17:53:42;98433.34;;;8.70;100.00
17505;BME280;8870;50.950;11.762;2023-02-18T17:59:01;98463.09;;;8.58;100.00
17505;BME280;8870;50.950;11.762;2023-02-18T18:04:32;98470.88;;;8.52;100.00
17505;BME280;8870;50.950;11.762;2023-02-18T18:09:53;98448.25;;;8.54;100.00
17505;BME280;8870;50.950;11.762;2023-02-18T18:15:28;98456.72;;;8.59;100.00
17505;BME280;8870;50.950;11.762;2023-02-18T18:20:50;98462.63;;;8.63;100.00
17505;BME280;8870;50.950;11.762;2023-02-18T18:26:24;98436.72;;;8.72;100.00
17505;BME280;8870;50.950;11.762;2023-02-18T18:31:43;98458.22;;;8.72;100.00
17505;BME280;8870;50.950;11.762;2023-02-18T18:37:14;98466.19;;;8.63;100.00
17505;BME280;8870;50.950;11.762;2023-02-18T18:42:35;98465.16;;;8.64;100.00
17505;BME280;8870;50.950;11.762;2023-02-18T18:48:06;98463.78;;;8.60;100.00
17505;BME280;8870;50.950;11.762;2023-02-18T18:53:26;98474.09;;;8.55;100.00
17505;BME280;8870;50.950;11.762;2023-02-18T18:59:00;98472.69;;;8.61;100.00
17505;BME280;8870;50.950;11.762;2023-02-18T19:04:19;98458.22;;;8.72;100.00
17505;BME280;8870;50.950;11.762;2023-02-18T19:09:52;98461.91;;;8.71;100.00
17505;BME280;8870;50.950;11.762;2023-02-18T19:15:17;98448.47;;;8.71;100.00
17505;BME280;8870;50.950;11.762;2023-02-18T19:20:49;98465.88;;;8.67;100.00
17505;BME280;8870;50.950;11.762;2023-02-18T19:26:07;98465.56;;;8.70;100.00
17505;BME280;8870;50.950;11.762;2023-02-18T19:31:41;98463.00;;;8.78;100.00
17505;BME280;8870;50.950;11.762;2023-02-18T19:37:00;98454.47;;;8.83;100.00
17505;BME280;8870;50.950;11.762;2023-02-18T19:42:31;98443.00;;;8.90;100.00
17505;BME280;8870;50.950;11.762;2023-02-18T19:47:55;98445.38;;;8.93;100.00
17505;BME280;8870;50.950;11.762;2023-02-18T19:53:26;98447.38;;;8.91;100.00
17505;BME280;8870;50.950;11.762;2023-02-18T19:58:44;98456.84;;;8.96;100.00
17505;BME280;8870;50.950;11.762;2023-02-18T20:04:17;98457.66;;;8.96;100.00
17505;BME280;8870;50.950;11.762;2023-02-18T20:09:43;98468.13;;;8.99;100.00
17505;BME280;8870;50.950;11.762;2023-02-18T20:15:15;98485.78;;;9.02;100.00
17505;BME280;8870;50.950;11.762;2023-02-18T20:20:36;98479.28;;;9.04;100.00
17505;BME280;8870;50.950;11.762;2023-02-18T20:26:07;98474.44;;;9.08;100.00
17505;BME280;8870;50.950;11.762;2023-02-18T20:31:26;98474.47;;;8.98;100.00
17505;BME280;8870;50.950;11.762;2023-02-18T20:36:59;98469.81;;;9.00;100.00
17505;BME280;8870;50.950;11.762;2023-02-18T20:42:18;98460.06;;;8.99;100.00
17505;BME280;8870;50.950;11.762;2023-02-18T20:47:49;98455.97;;;8.95;100.00
17505;BME280;8870;50.950;11.762;2023-02-18T20:53:10;98460.81;;;8.91;100.00
17505;BME280;8870;50.950;11.762;2023-02-18T20:58:41;98457.88;;;8.85;100.00
17505;BME280;8870;50.950;11.762;2023-02-18T21:03:59;98459.28;;;8.89;100.00
17505;BME280;8870;50.950;11.762;2023-02-18T21:09:32;98462.41;;;8.84;100.00
17505;BME280;8870;50.950;11.762;2023-02-18T21:15:04;98450.34;;;8.88;100.00
17505;BME280;8870;50.950;11.762;2023-02-18T21:20:22;98448.81;;;8.86;100.00
17505;BME280;8870;50.950;11.762;2023-02-18T21:26:00;98442.28;;;8.88;100.00
17505;BME280;8870;50.950;11.762;2023-02-18T21:31:20;98445.09;;;8.97;100.00
17505;BME280;8870;50.950;11.762;2023-02-18T21:36:52;98444.84;;;8.90;100.00
17505;BME280;8870;50.950;11.762;2023-02-18T21:42:13;98453.59;;;8.92;100.00
17505;BME280;8870;50.950;11.762;2023-02-18T21:47:45;98455.31;;;8.93;100.00
17505;BME280;8870;50.950;11.762;2023-02-18T21:53:03;98441.63;;;8.86;100.00
17505;BME280;8870;50.950;11.762;2023-02-18T21:58:37;98438.06;;;8.86;100.00
17505;BME280;8870;50.950;11.762;2023-02-18T22:03:58;98447.28;;;8.83;100.00
17505;BME280;8870;50.950;11.762;2023-02-18T22:09:29;98436.53;;;8.83;100.00
17505;BME280;8870;50.950;11.762;2023-02-18T22:15:05;98443.91;;;8.81;100.00
17505;BME280;8870;50.950;11.762;2023-02-18T22:20:24;98432.16;;;8.82;100.00
17505;BME280;8870;50.950;11.762;2023-02-18T22:25:42;98427.31;;;8.86;100.00
17505;BME280;8870;50.950;11.762;2023-02-18T22:31:16;98429.31;;;8.84;100.00
17505;BME280;8870;50.950;11.762;2023-02-18T22:36:34;98428.47;;;8.83;100.00
17505;BME280;8870;50.950;11.762;2023-02-18T22:42:05;98419.88;;;8.79;100.00
17505;BME280;8870;50.950;11.762;2023-02-18T22:47:26;98414.34;;;8.81;100.00
17505;BME280;8870;50.950;11.762;2023-02-18T22:52:57;98413.50;;;8.81;100.00
17505;BME280;8870;50.950;11.762;2023-02-18T22:58:15;98411.38;;;8.84;100.00
17505;BME280;8870;50.950;11.762;2023-02-18T23:03:49;98416.50;;;8.77;100.00
17505;BME280;8870;50.950;11.762;2023-02-18T23:09:16;98395.38;;;8.83;100.00
17505;BME280;8870;50.950;11.762;2023-02-18T23:14:47;98402.06;;;8.78;100.00
17505;BME280;8870;50.950;11.762;2023-02-18T23:20:08;98407.31;;;8.70;100.00
17505;BME280;8870;50.950;11.762;2023-02-18T23:26:01;98394.22;;;8.67;100.00
17505;BME280;8870;50.950;11.762;2023-02-18T23:31:20;98382.31;;;8.70;100.00
17505;BME280;8870;50.950;11.762;2023-02-18T23:36:56;98380.72;;;8.77;100.00
17505;BME280;8870;50.950;11.762;2023-02-18T23:42:14;98389.38;;;8.71;100.00
17505;BME280;8870;50.950;11.762;2023-02-18T23:47:45;98389.84;;;8.66;100.00
17505;BME280;8870;50.950;11.762;2023-02-18T23:53:06;98399.88;;;8.64;100.00
17505;BME280;8870;50.950;11.762;2023-02-18T23:58:38;98405.06;;;8.38;100.00
